createdAt,value
2022-10-22T00:04:40.382Z,7.97
2022-10-22T00:09:43.562Z,7.96
2022-10-22T00:14:47.177Z,7.96
2022-10-22T00:19:50.488Z,7.97
2022-10-22T00:24:53.694Z,7.97
2022-10-22T00:29:57.004Z,7.95
2022-10-22T00:35:00.126Z,7.95
2022-10-22T00:40:05.162Z,7.93
2022-10-22T00:45:11.442Z,7.92
2022-10-22T00:51:00.934Z,7.90
2022-10-22T00:56:04.653Z,7.90
2022-10-22T01:01:13.180Z,7.89
2022-10-22T01:06:25.304Z,7.88
2022-10-22T01:11:54.322Z,7.88
2022-10-22T01:17:32.549Z,7.88
2022-10-22T01:22:44.718Z,7.88
2022-10-22T01:28:02.721Z,7.88
2022-10-22T01:33:09.613Z,7.89
2022-10-22T01:38:20.500Z,7.91
2022-10-22T01:43:23.811Z,7.92
2022-10-22T01:49:01.837Z,7.93
2022-10-22T01:54:34.637Z,7.95
2022-10-22T02:00:02.830Z,7.96
2022-10-22T02:05:17.612Z,7.97
2022-10-22T02:10:22.661Z,7.95
2022-10-22T02:15:29.984Z,7.95
2022-10-22T02:20:35.741Z,7.93
2022-10-22T02:25:42.351Z,7.91
2022-10-22T02:30:54.298Z,7.89
2022-10-22T02:35:59.901Z,7.86
2022-10-22T02:41:04.459Z,7.84
2022-10-22T02:46:07.849Z,7.83
2022-10-22T02:51:11.055Z,7.83
2022-10-22T02:56:14.590Z,7.83
2022-10-22T03:01:17.811Z,7.82
2022-10-22T03:06:21.013Z,7.80
2022-10-22T03:11:24.301Z,7.79
2022-10-22T03:16:27.507Z,7.79
2022-10-22T03:21:37.472Z,7.81
2022-10-22T03:26:42.933Z,7.83
2022-10-22T03:31:46.582Z,7.83
2022-10-22T03:36:50.272Z,7.84
2022-10-22T03:41:54.298Z,7.86
2022-10-22T03:47:00.218Z,7.86
2022-10-22T03:52:14.230Z,7.87
2022-10-22T03:57:17.645Z,7.88
2022-10-22T04:02:20.851Z,7.88
2022-10-22T04:07:24.266Z,7.89
2022-10-22T04:12:27.368Z,7.89
2022-10-22T04:17:38.113Z,7.89
2022-10-22T04:22:41.568Z,7.90
2022-10-22T04:27:44.674Z,7.89
2022-10-22T04:32:47.879Z,7.89
2022-10-22T04:37:51.088Z,7.89
2022-10-22T04:42:54.194Z,7.88
2022-10-22T04:47:57.301Z,7.88
2022-10-22T04:53:00.508Z,7.90
2022-10-22T04:58:03.715Z,7.91
2022-10-22T05:03:07.434Z,7.93
2022-10-22T05:08:11.053Z,7.93
2022-10-22T05:13:14.157Z,7.94
2022-10-22T05:18:19.074Z,7.97
2022-10-22T05:23:25.896Z,7.96
2022-10-22T05:28:28.918Z,7.93
2022-10-22T05:33:33.339Z,7.90
2022-10-22T05:38:36.856Z,7.88
2022-10-22T05:43:41.293Z,7.89
2022-10-22T05:48:44.927Z,7.90
2022-10-22T05:53:54.940Z,7.93
2022-10-22T05:58:59.261Z,7.98
2022-10-22T06:04:05.516Z,8.04
2022-10-22T06:09:29.538Z,8.08
2022-10-22T06:14:33.101Z,8.14
2022-10-22T06:19:36.722Z,8.20
2022-10-22T06:24:41.644Z,8.27
2022-10-22T06:29:48.973Z,8.36
2022-10-22T06:34:52.487Z,8.48
2022-10-22T06:39:55.489Z,8.66
2022-10-22T06:44:59.039Z,8.88
2022-10-22T06:50:03.564Z,9.07
2022-10-22T06:55:07.983Z,9.24
2022-10-22T07:00:12.300Z,9.36
2022-10-22T07:05:15.731Z,9.42
2022-10-22T07:10:18.991Z,9.47
2022-10-22T07:15:22.216Z,9.57
2022-10-22T07:20:25.658Z,9.70
2022-10-22T07:25:28.766Z,9.87
2022-10-22T07:30:32.279Z,10.02
2022-10-22T07:35:38.332Z,10.15
2022-10-22T07:40:41.665Z,10.26
2022-10-22T07:45:46.003Z,10.30
2022-10-22T07:50:52.586Z,10.31
2022-10-22T07:55:55.794Z,10.36
2022-10-22T08:01:01.120Z,10.41
2022-10-22T08:06:05.077Z,10.48
2022-10-22T08:11:08.288Z,10.59
2022-10-22T08:16:11.902Z,10.72
2022-10-22T08:21:15.006Z,10.87
2022-10-22T08:26:18.728Z,10.94
2022-10-22T08:31:22.760Z,10.99
2022-10-22T08:36:26.379Z,11.00
2022-10-22T08:41:29.688Z,11.00
2022-10-22T08:46:48.664Z,11.01
2022-10-22T08:51:52.381Z,10.98
2022-10-22T08:57:17.100Z,10.94
2022-10-22T09:02:35.970Z,10.88
2022-10-22T09:07:43.867Z,10.86
2022-10-22T09:12:48.738Z,10.89
2022-10-22T09:18:16.737Z,10.96
2022-10-22T09:23:37.850Z,11.09
2022-10-22T09:28:41.467Z,11.32
2022-10-22T09:33:48.177Z,11.50
2022-10-22T09:38:53.307Z,11.50
2022-10-22T09:43:58.157Z,11.40
2022-10-22T09:49:07.006Z,11.29
2022-10-22T09:54:23.221Z,11.26
2022-10-22T09:59:39.013Z,11.25
2022-10-22T10:04:48.754Z,11.28
2022-10-22T10:09:54.121Z,11.36
2022-10-22T10:15:27.140Z,11.45
2022-10-22T10:20:56.874Z,11.54
2022-10-22T10:26:18.824Z,11.65
2022-10-22T10:31:40.356Z,11.74
2022-10-22T10:37:01.789Z,11.82
2022-10-22T10:42:17.183Z,11.94
2022-10-22T10:47:51.724Z,12.01
2022-10-22T10:53:08.348Z,12.02
2022-10-22T10:58:45.961Z,11.97
2022-10-22T11:03:58.292Z,11.91
2022-10-22T11:09:24.212Z,11.86
2022-10-22T11:14:42.177Z,11.83
2022-10-22T11:20:01.210Z,11.79
2022-10-22T11:25:13.477Z,11.79
2022-10-22T11:30:22.620Z,11.79
2022-10-22T11:35:31.468Z,11.79
2022-10-22T11:41:00.682Z,11.81
2022-10-22T11:46:27.137Z,11.83
2022-10-22T11:51:36.702Z,11.86
2022-10-22T11:56:40.307Z,11.87
2022-10-22T12:01:48.328Z,11.87
2022-10-22T12:07:00.536Z,11.86
2022-10-22T12:12:16.043Z,11.85
2022-10-22T12:17:22.212Z,11.81
2022-10-22T12:22:32.404Z,11.79
2022-10-22T12:27:38.356Z,11.81
2022-10-22T12:32:41.676Z,11.84
2022-10-22T12:37:45.150Z,11.86
2022-10-22T12:43:00.040Z,11.92
2022-10-22T12:48:15.467Z,11.99
2022-10-22T12:53:33.525Z,12.05
2022-10-22T12:58:48.617Z,12.08
2022-10-22T13:04:23.464Z,12.08
2022-10-22T13:09:27.750Z,12.08
2022-10-22T13:14:34.405Z,12.08
2022-10-22T13:19:52.849Z,12.06
2022-10-22T13:30:18.615Z,12.07
2022-10-22T13:35:27.263Z,12.07
2022-10-22T13:40:30.771Z,12.08
2022-10-22T13:45:33.976Z,12.10
2022-10-22T13:50:37.898Z,12.09
2022-10-22T13:55:41.619Z,12.10
2022-10-22T14:00:47.748Z,12.10
2022-10-22T14:05:51.209Z,12.10
2022-10-22T14:10:55.621Z,12.11
2022-10-22T14:15:58.749Z,12.10
2022-10-22T14:21:07.736Z,12.09
2022-10-22T14:26:31.622Z,12.10
2022-10-22T14:31:36.669Z,12.09
2022-10-22T14:36:39.948Z,12.09
2022-10-22T14:41:43.668Z,12.08
2022-10-22T14:46:47.298Z,12.08
2022-10-22T14:51:51.005Z,12.08
2022-10-22T14:56:54.724Z,12.08
2022-10-22T15:01:58.240Z,12.08
2022-10-22T15:07:01.447Z,12.08
2022-10-22T15:12:04.595Z,12.08
2022-10-22T15:17:07.663Z,12.08
2022-10-22T15:22:11.891Z,12.07
2022-10-22T15:27:16.224Z,12.07
2022-10-22T15:32:19.533Z,12.07
2022-10-22T15:37:23.152Z,12.08
2022-10-22T15:42:26.360Z,12.09
2022-10-22T15:47:31.524Z,12.10
2022-10-22T15:52:34.926Z,12.10
2022-10-22T15:57:39.775Z,12.11
2022-10-22T16:02:43.287Z,12.11
2022-10-22T16:07:46.499Z,12.13
2022-10-22T16:12:51.866Z,12.13
2022-10-22T16:17:55.170Z,12.13
2022-10-22T16:22:58.575Z,12.14
2022-10-22T16:28:01.682Z,12.15
2022-10-22T16:33:06.296Z,12.15
2022-10-22T16:38:11.066Z,12.16
2022-10-22T16:43:14.688Z,12.16
2022-10-22T16:48:19.455Z,12.17
2022-10-22T16:53:22.805Z,12.18
2022-10-22T16:58:26.969Z,12.18
2022-10-22T17:03:30.082Z,12.20
2022-10-22T17:08:37.725Z,12.21
2022-10-22T17:13:42.126Z,12.22
2022-10-22T17:23:58.481Z,12.25
2022-10-22T17:29:01.784Z,12.26
2022-10-22T17:34:08.212Z,12.27
2022-10-22T17:39:17.006Z,12.28
2022-10-22T17:44:20.519Z,12.28
2022-10-22T17:49:24.039Z,12.28
2022-10-22T17:54:27.903Z,12.28
2022-10-22T17:59:33.033Z,12.28
2022-10-22T18:04:36.564Z,12.28
2022-10-22T18:09:40.053Z,12.29
2022-10-22T18:14:43.571Z,12.30
2022-10-22T18:19:49.783Z,12.31
2022-10-22T18:24:53.350Z,12.32
2022-10-22T18:29:56.569Z,12.33
2022-10-22T18:35:00.084Z,12.34
2022-10-22T18:40:08.766Z,12.36
2022-10-22T18:45:16.480Z,12.37
2022-10-22T18:50:20.418Z,12.39
2022-10-22T18:55:25.403Z,12.40
2022-10-22T19:00:28.922Z,12.42
2022-10-22T19:05:32.331Z,12.42
2022-10-22T19:10:35.846Z,12.43
2022-10-22T19:15:39.485Z,12.44
2022-10-22T19:20:46.505Z,12.44
2022-10-22T19:26:04.004Z,12.45
2022-10-22T19:31:09.128Z,12.46
2022-10-22T19:36:14.312Z,12.47
2022-10-22T19:41:20.968Z,12.48
2022-10-22T19:46:26.557Z,12.50
2022-10-22T19:51:33.694Z,12.51
2022-10-22T19:56:38.513Z,12.52
2022-10-22T20:01:42.234Z,12.54
2022-10-22T20:06:46.440Z,12.55
2022-10-22T20:11:50.090Z,12.56
2022-10-22T20:16:53.696Z,12.58
2022-10-22T20:21:57.006Z,12.59
2022-10-22T20:27:00.924Z,12.61
2022-10-22T20:32:06.727Z,12.61
2022-10-22T20:37:12.289Z,12.62
2022-10-22T20:42:17.218Z,12.63
2022-10-22T20:47:21.281Z,12.64
2022-10-22T20:52:26.601Z,12.65
2022-10-22T20:57:30.287Z,12.66
2022-10-22T21:02:34.855Z,12.66
2022-10-22T21:07:38.065Z,12.68
2022-10-22T21:12:42.873Z,12.69
2022-10-22T21:17:46.634Z,12.70
2022-10-22T21:22:49.737Z,12.71
2022-10-22T21:27:52.751Z,12.71
2022-10-22T21:32:57.176Z,12.71
2022-10-22T21:38:00.488Z,12.72
2022-10-22T21:43:03.696Z,12.73
2022-10-22T21:48:06.799Z,12.73
2022-10-22T21:53:12.466Z,12.73
2022-10-22T21:58:15.983Z,12.73
2022-10-22T22:03:19.114Z,12.73
2022-10-22T22:08:22.193Z,12.73
2022-10-22T22:13:25.298Z,12.73
2022-10-22T22:18:30.249Z,12.72
2022-10-22T22:23:33.659Z,12.72
2022-10-22T22:28:37.892Z,12.71
2022-10-22T22:33:42.021Z,12.69
2022-10-22T22:38:45.125Z,12.68
2022-10-22T22:43:48.158Z,12.67
2022-10-22T22:48:51.443Z,12.65
2022-10-22T22:53:54.852Z,12.63
2022-10-22T22:58:58.886Z,12.63
2022-10-22T23:04:12.996Z,12.62
2022-10-22T23:14:28.168Z,12.60
2022-10-22T23:19:31.578Z,12.58
2022-10-22T23:24:35.301Z,12.58
2022-10-22T23:29:38.404Z,12.56
2022-10-22T23:34:42.532Z,12.56
2022-10-22T23:39:45.843Z,12.57
2022-10-22T23:44:48.888Z,12.56
2022-10-22T23:49:51.950Z,12.55
2022-10-22T23:54:55.161Z,12.54
2022-10-22T23:59:58.159Z,12.52
